sensor_id;sensor_type;location;lat;lon;timestamp;P1;durP1;ratioP1;P2;durP2;ratioP2
19509;SDS011;9896;42.486;26.506;2023-08-06T00:01:24;20.33;;;15.10;;
19509;SDS011;9896;42.486;26.506;2023-08-06T00:03:50;19.77;;;14.43;;
19509;SDS011;9896;42.486;26.506;2023-08-06T00:06:16;21.47;;;14.43;;
19509;SDS011;9896;42.486;26.506;2023-08-06T00:08:41;22.13;;;14.60;;
19509;SDS011;9896;42.486;26.506;2023-08-06T00:11:07;25.23;;;14.93;;
19509;SDS011;9896;42.486;26.506;2023-08-06T00:13:32;21.30;;;14.67;;
19509;SDS011;9896;42.486;26.506;2023-08-06T00:16:10;15.47;;;13.50;;
19509;SDS011;9896;42.486;26.506;2023-08-06T00:18:36;23.60;;;15.03;;
19509;SDS011;9896;42.486;26.506;2023-08-06T00:21:01;20.27;;;14.33;;
19509;SDS011;9896;42.486;26.506;2023-08-06T00:23:26;24.37;;;14.60;;
19509;SDS011;9896;42.486;26.506;2023-08-06T00:25:52;24.17;;;14.83;;
19509;SDS011;9896;42.486;26.506;2023-08-06T00:28:17;20.83;;;14.40;;
19509;SDS011;9896;42.486;26.506;2023-08-06T00:30:42;25.10;;;14.57;;
19509;SDS011;9896;42.486;26.506;2023-08-06T00:33:08;19.87;;;15.00;;
19509;SDS011;9896;42.486;26.506;2023-08-06T00:35:33;26.50;;;16.57;;
19509;SDS011;9896;42.486;26.506;2023-08-06T00:37:59;34.70;;;22.03;;
19509;SDS011;9896;42.486;26.506;2023-08-06T00:40:24;54.97;;;41.83;;
19509;SDS011;9896;42.486;26.506;2023-08-06T00:42:50;59.97;;;41.37;;
19509;SDS011;9896;42.486;26.506;2023-08-06T00:45:15;42.60;;;33.27;;
19509;SDS011;9896;42.486;26.506;2023-08-06T00:47:41;30.73;;;22.20;;
19509;SDS011;9896;42.486;26.506;2023-08-06T00:50:07;28.37;;;18.93;;
19509;SDS011;9896;42.486;26.506;2023-08-06T00:52:32;24.80;;;17.63;;
19509;SDS011;9896;42.486;26.506;2023-08-06T00:54:58;26.13;;;15.50;;
19509;SDS011;9896;42.486;26.506;2023-08-06T00:57:24;23.37;;;17.00;;
19509;SDS011;9896;42.486;26.506;2023-08-06T00:59:50;34.47;;;19.23;;
19509;SDS011;9896;42.486;26.506;2023-08-06T01:02:16;27.03;;;19.57;;
19509;SDS011;9896;42.486;26.506;2023-08-06T01:04:41;25.20;;;19.27;;
19509;SDS011;9896;42.486;26.506;2023-08-06T01:07:14;25.67;;;18.03;;
19509;SDS011;9896;42.486;26.506;2023-08-06T01:09:50;25.47;;;18.13;;
19509;SDS011;9896;42.486;26.506;2023-08-06T01:12:23;24.00;;;17.93;;
19509;SDS011;9896;42.486;26.506;2023-08-06T01:15:07;25.63;;;18.17;;
19509;SDS011;9896;42.486;26.506;2023-08-06T01:17:36;24.50;;;17.57;;
19509;SDS011;9896;42.486;26.506;2023-08-06T01:20:01;28.17;;;18.17;;
19509;SDS011;9896;42.486;26.506;2023-08-06T01:22:27;25.03;;;18.20;;
19509;SDS011;9896;42.486;26.506;2023-08-06T01:24:52;26.23;;;18.07;;
19509;SDS011;9896;42.486;26.506;2023-08-06T01:29:47;32.40;;;18.80;;
19509;SDS011;9896;42.486;26.506;2023-08-06T01:32:14;31.03;;;19.77;;
19509;SDS011;9896;42.486;26.506;2023-08-06T01:34:40;25.23;;;19.67;;
19509;SDS011;9896;42.486;26.506;2023-08-06T01:37:06;28.23;;;21.27;;
19509;SDS011;9896;42.486;26.506;2023-08-06T01:39:35;35.43;;;22.03;;
19509;SDS011;9896;42.486;26.506;2023-08-06T01:42:01;39.07;;;22.93;;
19509;SDS011;9896;42.486;26.506;2023-08-06T01:44:26;28.87;;;20.73;;
19509;SDS011;9896;42.486;26.506;2023-08-06T01:46:51;34.57;;;21.40;;
19509;SDS011;9896;42.486;26.506;2023-08-06T01:49:17;32.17;;;22.67;;
19509;SDS011;9896;42.486;26.506;2023-08-06T01:51:42;35.97;;;23.47;;
19509;SDS011;9896;42.486;26.506;2023-08-06T01:54:08;28.60;;;21.97;;
19509;SDS011;9896;42.486;26.506;2023-08-06T01:56:33;31.13;;;20.77;;
19509;SDS011;9896;42.486;26.506;2023-08-06T01:58:59;29.90;;;19.23;;
19509;SDS011;9896;42.486;26.506;2023-08-06T02:01:24;28.90;;;19.97;;
19509;SDS011;9896;42.486;26.506;2023-08-06T02:03:50;30.10;;;20.70;;
19509;SDS011;9896;42.486;26.506;2023-08-06T02:06:15;31.93;;;20.20;;
19509;SDS011;9896;42.486;26.506;2023-08-06T02:08:40;24.87;;;18.87;;
19509;SDS011;9896;42.486;26.506;2023-08-06T02:11:06;24.03;;;17.40;;
19509;SDS011;9896;42.486;26.506;2023-08-06T02:13:31;30.47;;;18.30;;
19509;SDS011;9896;42.486;26.506;2023-08-06T02:15:57;28.23;;;18.17;;
19509;SDS011;9896;42.486;26.506;2023-08-06T02:18:22;23.77;;;18.40;;
19509;SDS011;9896;42.486;26.506;2023-08-06T02:21:00;28.13;;;18.67;;
19509;SDS011;9896;42.486;26.506;2023-08-06T02:23:26;28.83;;;19.03;;
19509;SDS011;9896;42.486;26.506;2023-08-06T02:25:58;27.73;;;18.93;;
19509;SDS011;9896;42.486;26.506;2023-08-06T02:28:24;22.13;;;18.73;;
19509;SDS011;9896;42.486;26.506;2023-08-06T02:30:50;30.70;;;19.63;;
19509;SDS011;9896;42.486;26.506;2023-08-06T02:33:16;28.53;;;22.13;;
19509;SDS011;9896;42.486;26.506;2023-08-06T02:35:41;31.77;;;20.77;;
19509;SDS011;9896;42.486;26.506;2023-08-06T02:38:06;31.90;;;20.60;;
19509;SDS011;9896;42.486;26.506;2023-08-06T02:40:32;29.10;;;21.07;;
19509;SDS011;9896;42.486;26.506;2023-08-06T02:42:57;29.87;;;21.37;;
19509;SDS011;9896;42.486;26.506;2023-08-06T02:45:23;33.90;;;20.97;;
19509;SDS011;9896;42.486;26.506;2023-08-06T02:47:48;29.27;;;20.30;;
19509;SDS011;9896;42.486;26.506;2023-08-06T02:50:14;32.47;;;20.40;;
19509;SDS011;9896;42.486;26.506;2023-08-06T02:52:39;30.93;;;20.93;;
19509;SDS011;9896;42.486;26.506;2023-08-06T02:55:05;35.90;;;21.93;;
19509;SDS011;9896;42.486;26.506;2023-08-06T02:57:31;30.93;;;21.07;;
19509;SDS011;9896;42.486;26.506;2023-08-06T02:59:56;42.53;;;20.97;;
19509;SDS011;9896;42.486;26.506;2023-08-06T03:02:22;27.33;;;21.00;;
19509;SDS011;9896;42.486;26.506;2023-08-06T03:04:47;34.47;;;24.00;;
19509;SDS011;9896;42.486;26.506;2023-08-06T03:07:13;35.03;;;25.60;;
19509;SDS011;9896;42.486;26.506;2023-08-06T03:09:38;38.73;;;25.47;;
19509;SDS011;9896;42.486;26.506;2023-08-06T03:12:03;44.30;;;32.60;;
19509;SDS011;9896;42.486;26.506;2023-08-06T03:14:29;43.40;;;29.50;;
19509;SDS011;9896;42.486;26.506;2023-08-06T03:16:54;40.37;;;28.00;;
19509;SDS011;9896;42.486;26.506;2023-08-06T03:19:19;42.17;;;26.17;;
19509;SDS011;9896;42.486;26.506;2023-08-06T03:21:45;36.13;;;24.47;;
19509;SDS011;9896;42.486;26.506;2023-08-06T03:24:10;35.13;;;25.20;;
19509;SDS011;9896;42.486;26.506;2023-08-06T03:26:36;37.77;;;26.70;;
19509;SDS011;9896;42.486;26.506;2023-08-06T03:29:01;36.80;;;28.10;;
19509;SDS011;9896;42.486;26.506;2023-08-06T03:31:26;39.07;;;25.50;;
19509;SDS011;9896;42.486;26.506;2023-08-06T03:33:52;39.47;;;27.53;;
19509;SDS011;9896;42.486;26.506;2023-08-06T03:36:17;37.47;;;27.83;;
19509;SDS011;9896;42.486;26.506;2023-08-06T03:38:43;44.43;;;29.07;;
19509;SDS011;9896;42.486;26.506;2023-08-06T03:41:08;44.90;;;30.70;;
19509;SDS011;9896;42.486;26.506;2023-08-06T03:43:33;40.33;;;29.37;;
19509;SDS011;9896;42.486;26.506;2023-08-06T03:45:59;42.83;;;29.07;;
19509;SDS011;9896;42.486;26.506;2023-08-06T03:48:24;41.07;;;27.40;;
19509;SDS011;9896;42.486;26.506;2023-08-06T03:50:50;42.97;;;27.70;;
19509;SDS011;9896;42.486;26.506;2023-08-06T03:53:15;34.63;;;23.57;;
19509;SDS011;9896;42.486;26.506;2023-08-06T03:55:41;37.37;;;23.80;;
19509;SDS011;9896;42.486;26.506;2023-08-06T03:58:07;32.97;;;22.47;;
19509;SDS011;9896;42.486;26.506;2023-08-06T04:00:32;32.03;;;22.43;;
19509;SDS011;9896;42.486;26.506;2023-08-06T04:02:57;30.10;;;21.57;;
19509;SDS011;9896;42.486;26.506;2023-08-06T04:05:23;32.90;;;22.77;;
19509;SDS011;9896;42.486;26.506;2023-08-06T04:07:48;34.90;;;23.27;;
19509;SDS011;9896;42.486;26.506;2023-08-06T04:10:14;32.17;;;22.00;;
19509;SDS011;9896;42.486;26.506;2023-08-06T04:12:39;30.93;;;22.07;;
19509;SDS011;9896;42.486;26.506;2023-08-06T04:15:05;33.30;;;22.60;;
19509;SDS011;9896;42.486;26.506;2023-08-06T04:17:30;35.23;;;22.63;;
19509;SDS011;9896;42.486;26.506;2023-08-06T04:19:56;30.63;;;20.60;;
19509;SDS011;9896;42.486;26.506;2023-08-06T04:22:24;34.33;;;20.83;;
19509;SDS011;9896;42.486;26.506;2023-08-06T04:24:50;29.00;;;20.53;;
19509;SDS011;9896;42.486;26.506;2023-08-06T04:27:15;29.20;;;19.40;;
19509;SDS011;9896;42.486;26.506;2023-08-06T04:29:41;25.83;;;19.60;;
19509;SDS011;9896;42.486;26.506;2023-08-06T04:32:07;32.73;;;19.30;;
19509;SDS011;9896;42.486;26.506;2023-08-06T04:34:33;24.23;;;18.10;;
19509;SDS011;9896;42.486;26.506;2023-08-06T04:36:59;23.63;;;18.20;;
19509;SDS011;9896;42.486;26.506;2023-08-06T04:39:24;27.47;;;17.90;;
19509;SDS011;9896;42.486;26.506;2023-08-06T04:41:49;30.17;;;18.33;;
19509;SDS011;9896;42.486;26.506;2023-08-06T04:44:15;29.63;;;17.23;;
19509;SDS011;9896;42.486;26.506;2023-08-06T04:46:40;25.87;;;16.10;;
19509;SDS011;9896;42.486;26.506;2023-08-06T04:49:06;25.73;;;17.33;;
19509;SDS011;9896;42.486;26.506;2023-08-06T04:51:31;24.57;;;16.20;;
19509;SDS011;9896;42.486;26.506;2023-08-06T04:53:57;33.63;;;16.77;;
19509;SDS011;9896;42.486;26.506;2023-08-06T04:56:22;25.03;;;16.27;;
19509;SDS011;9896;42.486;26.506;2023-08-06T04:58:48;20.67;;;15.63;;
19509;SDS011;9896;42.486;26.506;2023-08-06T05:01:13;26.73;;;16.33;;
19509;SDS011;9896;42.486;26.506;2023-08-06T05:03:38;28.63;;;16.57;;
19509;SDS011;9896;42.486;26.506;2023-08-06T05:06:04;20.27;;;16.50;;
19509;SDS011;9896;42.486;26.506;2023-08-06T05:08:29;21.23;;;15.43;;
19509;SDS011;9896;42.486;26.506;2023-08-06T05:10:54;25.40;;;16.60;;
19509;SDS011;9896;42.486;26.506;2023-08-06T05:13:20;20.67;;;15.70;;
19509;SDS011;9896;42.486;26.506;2023-08-06T05:15:45;23.40;;;15.67;;
19509;SDS011;9896;42.486;26.506;2023-08-06T05:18:11;26.65;;;15.77;;
19509;SDS011;9896;42.486;26.506;2023-08-06T05:20:37;18.80;;;15.25;;
19509;SDS011;9896;42.486;26.506;2023-08-06T05:23:03;24.00;;;15.13;;
19509;SDS011;9896;42.486;26.506;2023-08-06T05:25:29;19.03;;;14.80;;
19509;SDS011;9896;42.486;26.506;2023-08-06T05:27:55;19.65;;;14.98;;
19509;SDS011;9896;42.486;26.506;2023-08-06T05:30:20;20.15;;;14.32;;
19509;SDS011;9896;42.486;26.506;2023-08-06T05:32:46;18.52;;;13.70;;
19509;SDS011;9896;42.486;26.506;2023-08-06T05:35:11;26.10;;;14.50;;
19509;SDS011;9896;42.486;26.506;2023-08-06T05:37:36;20.85;;;14.27;;
19509;SDS011;9896;42.486;26.506;2023-08-06T05:40:02;25.27;;;14.55;;
19509;SDS011;9896;42.486;26.506;2023-08-06T05:42:29;22.40;;;13.15;;
19509;SDS011;9896;42.486;26.506;2023-08-06T05:44:54;19.40;;;13.05;;
19509;SDS011;9896;42.486;26.506;2023-08-06T05:47:20;21.55;;;13.70;;
19509;SDS011;9896;42.486;26.506;2023-08-06T05:49:45;17.63;;;13.18;;
19509;SDS011;9896;42.486;26.506;2023-08-06T05:52:11;17.58;;;11.77;;
19509;SDS011;9896;42.486;26.506;2023-08-06T05:54:36;17.55;;;12.32;;
19509;SDS011;9896;42.486;26.506;2023-08-06T05:57:01;17.17;;;12.73;;
19509;SDS011;9896;42.486;26.506;2023-08-06T05:59:27;18.73;;;11.65;;
19509;SDS011;9896;42.486;26.506;2023-08-06T06:01:52;15.10;;;11.60;;
19509;SDS011;9896;42.486;26.506;2023-08-06T06:04:18;16.75;;;11.80;;
19509;SDS011;9896;42.486;26.506;2023-08-06T06:06:43;15.32;;;11.55;;
19509;SDS011;9896;42.486;26.506;2023-08-06T06:09:09;18.35;;;11.20;;
19509;SDS011;9896;42.486;26.506;2023-08-06T06:11:35;12.02;;;9.88;;
19509;SDS011;9896;42.486;26.506;2023-08-06T06:14:00;12.60;;;9.20;;
19509;SDS011;9896;42.486;26.506;2023-08-06T06:16:26;12.77;;;9.00;;
19509;SDS011;9896;42.486;26.506;2023-08-06T06:18:51;10.70;;;8.38;;
19509;SDS011;9896;42.486;26.506;2023-08-06T06:21:16;11.23;;;8.43;;
19509;SDS011;9896;42.486;26.506;2023-08-06T06:23:42;14.43;;;8.70;;
19509;SDS011;9896;42.486;26.506;2023-08-06T06:26:07;11.63;;;8.55;;
19509;SDS011;9896;42.486;26.506;2023-08-06T06:28:33;14.52;;;8.77;;
19509;SDS011;9896;42.486;26.506;2023-08-06T06:31:01;15.57;;;9.38;;
19509;SDS011;9896;42.486;26.506;2023-08-06T06:33:27;9.80;;;7.95;;
19509;SDS011;9896;42.486;26.506;2023-08-06T06:35:52;10.50;;;8.65;;
19509;SDS011;9896;42.486;26.506;2023-08-06T06:38:18;11.18;;;7.50;;
19509;SDS011;9896;42.486;26.506;2023-08-06T06:40:43;11.65;;;8.88;;
19509;SDS011;9896;42.486;26.506;2023-08-06T06:43:08;11.18;;;7.70;;
19509;SDS011;9896;42.486;26.506;2023-08-06T06:45:34;12.85;;;8.18;;
19509;SDS011;9896;42.486;26.506;2023-08-06T06:47:59;11.38;;;7.28;;
19509;SDS011;9896;42.486;26.506;2023-08-06T06:50:25;12.18;;;6.97;;
19509;SDS011;9896;42.486;26.506;2023-08-06T06:52:51;8.18;;;7.10;;
19509;SDS011;9896;42.486;26.506;2023-08-06T06:55:16;7.55;;;6.70;;
19509;SDS011;9896;42.486;26.506;2023-08-06T06:57:42;12.10;;;7.20;;
19509;SDS011;9896;42.486;26.506;2023-08-06T07:00:07;9.10;;;6.60;;
19509;SDS011;9896;42.486;26.506;2023-08-06T07:02:33;10.10;;;6.80;;
19509;SDS011;9896;42.486;26.506;2023-08-06T07:04:58;12.07;;;6.60;;
19509;SDS011;9896;42.486;26.506;2023-08-06T07:07:24;11.13;;;6.85;;
19509;SDS011;9896;42.486;26.506;2023-08-06T07:09:49;8.52;;;7.38;;
19509;SDS011;9896;42.486;26.506;2023-08-06T07:12:14;12.10;;;7.03;;
19509;SDS011;9896;42.486;26.506;2023-08-06T07:14:40;10.38;;;7.78;;
19509;SDS011;9896;42.486;26.506;2023-08-06T07:17:05;11.48;;;7.57;;
19509;SDS011;9896;42.486;26.506;2023-08-06T07:19:31;10.35;;;7.10;;
19509;SDS011;9896;42.486;26.506;2023-08-06T07:21:56;10.82;;;6.55;;
19509;SDS011;9896;42.486;26.506;2023-08-06T07:24:21;14.90;;;8.00;;
19509;SDS011;9896;42.486;26.506;2023-08-06T07:26:47;10.07;;;7.38;;
19509;SDS011;9896;42.486;26.506;2023-08-06T07:29:13;9.65;;;7.07;;
19509;SDS011;9896;42.486;26.506;2023-08-06T07:31:39;8.48;;;7.32;;
19509;SDS011;9896;42.486;26.506;2023-08-06T07:34:04;9.02;;;7.28;;
19509;SDS011;9896;42.486;26.506;2023-08-06T07:36:29;8.40;;;6.82;;
19509;SDS011;9896;42.486;26.506;2023-08-06T07:38:55;12.52;;;7.43;;
19509;SDS011;9896;42.486;26.506;2023-08-06T07:41:23;9.15;;;6.45;;
19509;SDS011;9896;42.486;26.506;2023-08-06T07:43:48;9.77;;;7.10;;
19509;SDS011;9896;42.486;26.506;2023-08-06T07:46:14;9.00;;;7.00;;
19509;SDS011;9896;42.486;26.506;2023-08-06T07:48:40;7.35;;;6.25;;
19509;SDS011;9896;42.486;26.506;2023-08-06T07:51:05;10.70;;;6.75;;
19509;SDS011;9896;42.486;26.506;2023-08-06T07:53:30;9.02;;;7.00;;
19509;SDS011;9896;42.486;26.506;2023-08-06T07:55:56;9.40;;;6.72;;
19509;SDS011;9896;42.486;26.506;2023-08-06T07:58:23;8.30;;;6.60;;
19509;SDS011;9896;42.486;26.506;2023-08-06T08:00:48;8.82;;;6.65;;
19509;SDS011;9896;42.486;26.506;2023-08-06T08:03:14;12.07;;;7.10;;
19509;SDS011;9896;42.486;26.506;2023-08-06T08:05:40;11.18;;;6.53;;
19509;SDS011;9896;42.486;26.506;2023-08-06T08:08:05;9.00;;;7.07;;
19509;SDS011;9896;42.486;26.506;2023-08-06T08:10:31;7.65;;;6.40;;
19509;SDS011;9896;42.486;26.506;2023-08-06T08:12:57;9.45;;;6.57;;
19509;SDS011;9896;42.486;26.506;2023-08-06T08:15:22;8.80;;;6.45;;
19509;SDS011;9896;42.486;26.506;2023-08-06T08:17:47;12.77;;;6.53;;
19509;SDS011;9896;42.486;26.506;2023-08-06T08:20:13;9.05;;;5.47;;
19509;SDS011;9896;42.486;26.506;2023-08-06T08:22:38;11.40;;;6.03;;
19509;SDS011;9896;42.486;26.506;2023-08-06T08:25:04;14.75;;;6.35;;
19509;SDS011;9896;42.486;26.506;2023-08-06T08:27:29;10.23;;;6.70;;
19509;SDS011;9896;42.486;26.506;2023-08-06T08:29:56;13.85;;;6.45;;
19509;SDS011;9896;42.486;26.506;2023-08-06T08:32:21;13.45;;;6.68;;
19509;SDS011;9896;42.486;26.506;2023-08-06T08:34:46;9.43;;;6.00;;
19509;SDS011;9896;42.486;26.506;2023-08-06T08:37:12;9.85;;;6.13;;
19509;SDS011;9896;42.486;26.506;2023-08-06T08:39:38;6.20;;;5.15;;
19509;SDS011;9896;42.486;26.506;2023-08-06T08:42:03;10.07;;;6.30;;
19509;SDS011;9896;42.486;26.506;2023-08-06T08:44:29;11.00;;;6.00;;
19509;SDS011;9896;42.486;26.506;2023-08-06T08:46:56;8.15;;;6.13;;
19509;SDS011;9896;42.486;26.506;2023-08-06T08:49:22;6.40;;;5.70;;
19509;SDS011;9896;42.486;26.506;2023-08-06T08:51:48;9.70;;;4.80;;
19509;SDS011;9896;42.486;26.506;2023-08-06T08:54:14;7.65;;;3.10;;
19509;SDS011;9896;42.486;26.506;2023-08-06T08:56:40;15.63;;;4.13;;
19509;SDS011;9896;42.486;26.506;2023-08-06T08:59:06;3.42;;;2.22;;
19509;SDS011;9896;42.486;26.506;2023-08-06T09:01:31;11.95;;;3.42;;
19509;SDS011;9896;42.486;26.506;2023-08-06T09:03:57;12.38;;;2.78;;
19509;SDS011;9896;42.486;26.506;2023-08-06T09:06:23;12.50;;;3.03;;
19509;SDS011;9896;42.486;26.506;2023-08-06T09:09:01;9.07;;;3.35;;
19509;SDS011;9896;42.486;26.506;2023-08-06T09:11:28;163.55;;;7.65;;
19509;SDS011;9896;42.486;26.506;2023-08-06T09:13:56;674.33;;;31.73;;
19509;SDS011;9896;42.486;26.506;2023-08-06T09:16:22;184.07;;;11.93;;
19509;SDS011;9896;42.486;26.506;2023-08-06T09:18:47;9.40;;;4.27;;
19509;SDS011;9896;42.486;26.506;2023-08-06T09:21:13;10.43;;;4.03;;
19509;SDS011;9896;42.486;26.506;2023-08-06T09:23:39;9.57;;;4.27;;
19509;SDS011;9896;42.486;26.506;2023-08-06T09:26:04;11.20;;;4.10;;
19509;SDS011;9896;42.486;26.506;2023-08-06T09:28:39;6.17;;;2.90;;
19509;SDS011;9896;42.486;26.506;2023-08-06T09:31:04;6.60;;;3.57;;
19509;SDS011;9896;42.486;26.506;2023-08-06T09:33:30;6.27;;;4.10;;
19509;SDS011;9896;42.486;26.506;2023-08-06T09:35:55;5.90;;;3.67;;
19509;SDS011;9896;42.486;26.506;2023-08-06T09:38:21;5.97;;;4.00;;
19509;SDS011;9896;42.486;26.506;2023-08-06T09:40:46;5.73;;;3.00;;
19509;SDS011;9896;42.486;26.506;2023-08-06T09:43:12;4.53;;;2.70;;
19509;SDS011;9896;42.486;26.506;2023-08-06T09:45:38;6.13;;;3.03;;
19509;SDS011;9896;42.486;26.506;2023-08-06T09:48:07;4.53;;;3.00;;
19509;SDS011;9896;42.486;26.506;2023-08-06T09:50:33;6.43;;;3.60;;
19509;SDS011;9896;42.486;26.506;2023-08-06T09:52:59;4.40;;;3.17;;
19509;SDS011;9896;42.486;26.506;2023-08-06T09:55:25;6.87;;;3.50;;
19509;SDS011;9896;42.486;26.506;2023-08-06T09:57:54;7.00;;;3.93;;
19509;SDS011;9896;42.486;26.506;2023-08-06T10:00:20;5.43;;;3.30;;
19509;SDS011;9896;42.486;26.506;2023-08-06T10:02:45;8.77;;;3.43;;
19509;SDS011;9896;42.486;26.506;2023-08-06T10:05:11;25.40;;;3.80;;
19509;SDS011;9896;42.486;26.506;2023-08-06T10:07:37;5.37;;;3.50;;
19509;SDS011;9896;42.486;26.506;2023-08-06T10:10:05;5.50;;;3.33;;
19509;SDS011;9896;42.486;26.506;2023-08-06T10:12:32;5.40;;;3.73;;
19509;SDS011;9896;42.486;26.506;2023-08-06T10:14:59;6.17;;;4.20;;
19509;SDS011;9896;42.486;26.506;2023-08-06T10:17:26;8.43;;;3.73;;
19509;SDS011;9896;42.486;26.506;2023-08-06T10:19:52;13.90;;;4.20;;
19509;SDS011;9896;42.486;26.506;2023-08-06T10:22:19;8.77;;;4.70;;
19509;SDS011;9896;42.486;26.506;2023-08-06T10:24:49;8.83;;;5.00;;
19509;SDS011;9896;42.486;26.506;2023-08-06T10:27:19;7.97;;;4.40;;
19509;SDS011;9896;42.486;26.506;2023-08-06T10:29:44;9.10;;;4.67;;
19509;SDS011;9896;42.486;26.506;2023-08-06T10:32:10;8.43;;;5.00;;
19509;SDS011;9896;42.486;26.506;2023-08-06T10:34:54;9.00;;;4.63;;
19509;SDS011;9896;42.486;26.506;2023-08-06T10:37:22;10.83;;;5.40;;
19509;SDS011;9896;42.486;26.506;2023-08-06T10:39:51;9.67;;;5.33;;
19509;SDS011;9896;42.486;26.506;2023-08-06T10:42:21;11.10;;;5.77;;
19509;SDS011;9896;42.486;26.506;2023-08-06T10:47:31;8.57;;;5.00;;
19509;SDS011;9896;42.486;26.506;2023-08-06T10:50:02;10.60;;;5.23;;
19509;SDS011;9896;42.486;26.506;2023-08-06T10:52:28;10.00;;;5.80;;
19509;SDS011;9896;42.486;26.506;2023-08-06T10:54:54;8.57;;;6.03;;
19509;SDS011;9896;42.486;26.506;2023-08-06T10:57:20;10.40;;;5.77;;
19509;SDS011;9896;42.486;26.506;2023-08-06T10:59:45;13.60;;;5.90;;
19509;SDS011;9896;42.486;26.506;2023-08-06T11:02:11;8.07;;;5.67;;
19509;SDS011;9896;42.486;26.506;2023-08-06T11:04:36;13.47;;;5.53;;
19509;SDS011;9896;42.486;26.506;2023-08-06T11:07:01;9.00;;;5.65;;
19509;SDS011;9896;42.486;26.506;2023-08-06T11:09:27;10.57;;;5.37;;
19509;SDS011;9896;42.486;26.506;2023-08-06T11:11:52;10.00;;;6.03;;
19509;SDS011;9896;42.486;26.506;2023-08-06T11:14:18;8.10;;;5.03;;
19509;SDS011;9896;42.486;26.506;2023-08-06T11:16:43;7.97;;;5.40;;
19509;SDS011;9896;42.486;26.506;2023-08-06T11:19:10;9.60;;;5.03;;
19509;SDS011;9896;42.486;26.506;2023-08-06T11:21:35;7.75;;;4.50;;
19509;SDS011;9896;42.486;26.506;2023-08-06T11:24:01;7.32;;;4.47;;
19509;SDS011;9896;42.486;26.506;2023-08-06T11:26:26;5.60;;;4.00;;
19509;SDS011;9896;42.486;26.506;2023-08-06T11:28:53;14.88;;;5.32;;
19509;SDS011;9896;42.486;26.506;2023-08-06T11:31:22;6.18;;;4.40;;
19509;SDS011;9896;42.486;26.506;2023-08-06T11:33:52;7.50;;;5.00;;
19509;SDS011;9896;42.486;26.506;2023-08-06T11:36:28;6.85;;;4.63;;
19509;SDS011;9896;42.486;26.506;2023-08-06T11:38:53;8.10;;;4.70;;
19509;SDS011;9896;42.486;26.506;2023-08-06T11:41:19;5.03;;;4.38;;
19509;SDS011;9896;42.486;26.506;2023-08-06T11:43:45;5.07;;;4.20;;
19509;SDS011;9896;42.486;26.506;2023-08-06T11:46:10;5.38;;;4.18;;
19509;SDS011;9896;42.486;26.506;2023-08-06T11:48:57;5.50;;;4.03;;
19509;SDS011;9896;42.486;26.506;2023-08-06T11:51:22;4.63;;;4.10;;
19509;SDS011;9896;42.486;26.506;2023-08-06T11:53:55;4.65;;;3.60;;
19509;SDS011;9896;42.486;26.506;2023-08-06T11:56:20;4.15;;;3.75;;
19509;SDS011;9896;42.486;26.506;2023-08-06T11:58:45;267.50;;;11.55;;
19509;SDS011;9896;42.486;26.506;2023-08-06T12:01:11;8.20;;;3.85;;
19509;SDS011;9896;42.486;26.506;2023-08-06T12:03:39;6.93;;;3.22;;
19509;SDS011;9896;42.486;26.506;2023-08-06T12:06:05;6.35;;;3.63;;
19509;SDS011;9896;42.486;26.506;2023-08-06T12:08:30;77.40;;;6.43;;
19509;SDS011;9896;42.486;26.506;2023-08-06T12:10:56;7.47;;;3.35;;
19509;SDS011;9896;42.486;26.506;2023-08-06T12:13:21;5.85;;;3.17;;
19509;SDS011;9896;42.486;26.506;2023-08-06T12:15:47;3.40;;;3.03;;
19509;SDS011;9896;42.486;26.506;2023-08-06T12:18:12;5.63;;;3.05;;
19509;SDS011;9896;42.486;26.506;2023-08-06T12:20:37;3.53;;;3.20;;
19509;SDS011;9896;42.486;26.506;2023-08-06T12:23:03;3.90;;;3.50;;
19509;SDS011;9896;42.486;26.506;2023-08-06T12:25:29;4.80;;;3.08;;
19509;SDS011;9896;42.486;26.506;2023-08-06T12:27:54;4.82;;;3.10;;
19509;SDS011;9896;42.486;26.506;2023-08-06T12:30:20;5.95;;;3.47;;
19509;SDS011;9896;42.486;26.506;2023-08-06T12:32:45;6.78;;;3.72;;
19509;SDS011;9896;42.486;26.506;2023-08-06T12:35:11;2.75;;;2.38;;
19509;SDS011;9896;42.486;26.506;2023-08-06T12:37:36;3.78;;;3.40;;
19509;SDS011;9896;42.486;26.506;2023-08-06T12:40:04;3.45;;;3.15;;
19509;SDS011;9896;42.486;26.506;2023-08-06T12:42:29;5.63;;;3.38;;
19509;SDS011;9896;42.486;26.506;2023-08-06T12:44:55;5.15;;;3.38;;
19509;SDS011;9896;42.486;26.506;2023-08-06T12:47:20;3.95;;;3.45;;
19509;SDS011;9896;42.486;26.506;2023-08-06T12:49:45;5.60;;;3.80;;
19509;SDS011;9896;42.486;26.506;2023-08-06T12:52:11;4.70;;;3.65;;
19509;SDS011;9896;42.486;26.506;2023-08-06T12:54:40;5.00;;;3.70;;
19509;SDS011;9896;42.486;26.506;2023-08-06T12:57:05;3.05;;;2.70;;
19509;SDS011;9896;42.486;26.506;2023-08-06T12:59:31;3.70;;;2.63;;
19509;SDS011;9896;42.486;26.506;2023-08-06T13:01:58;3.70;;;2.30;;
19509;SDS011;9896;42.486;26.506;2023-08-06T13:04:23;4.72;;;2.80;;
19509;SDS011;9896;42.486;26.506;2023-08-06T13:06:49;3.05;;;2.80;;
19509;SDS011;9896;42.486;26.506;2023-08-06T13:09:14;3.90;;;2.83;;
19509;SDS011;9896;42.486;26.506;2023-08-06T13:11:40;4.97;;;2.60;;
19509;SDS011;9896;42.486;26.506;2023-08-06T13:14:06;3.78;;;2.45;;
19509;SDS011;9896;42.486;26.506;2023-08-06T13:16:32;3.05;;;2.70;;
19509;SDS011;9896;42.486;26.506;2023-08-06T13:18:57;3.13;;;2.22;;
19509;SDS011;9896;42.486;26.506;2023-08-06T13:21:23;3.08;;;2.50;;
19509;SDS011;9896;42.486;26.506;2023-08-06T13:23:48;4.35;;;2.47;;
19509;SDS011;9896;42.486;26.506;2023-08-06T13:26:14;4.75;;;2.55;;
19509;SDS011;9896;42.486;26.506;2023-08-06T13:28:41;3.35;;;2.65;;
19509;SDS011;9896;42.486;26.506;2023-08-06T13:31:06;4.30;;;2.78;;
19509;SDS011;9896;42.486;26.506;2023-08-06T13:33:32;4.65;;;3.00;;
19509;SDS011;9896;42.486;26.506;2023-08-06T13:35:57;3.20;;;2.90;;
19509;SDS011;9896;42.486;26.506;2023-08-06T13:38:22;3.30;;;2.83;;
19509;SDS011;9896;42.486;26.506;2023-08-06T13:40:48;3.28;;;2.50;;
19509;SDS011;9896;42.486;26.506;2023-08-06T13:43:13;3.00;;;2.70;;
19509;SDS011;9896;42.486;26.506;2023-08-06T13:45:41;3.00;;;2.70;;
19509;SDS011;9896;42.486;26.506;2023-08-06T13:48:06;3.03;;;2.72;;
19509;SDS011;9896;42.486;26.506;2023-08-06T13:50:31;3.25;;;2.60;;
19509;SDS011;9896;42.486;26.506;2023-08-06T13:52:57;2.45;;;2.25;;
19509;SDS011;9896;42.486;26.506;2023-08-06T13:55:22;4.63;;;2.50;;
19509;SDS011;9896;42.486;26.506;2023-08-06T13:57:48;3.60;;;2.90;;
19509;SDS011;9896;42.486;26.506;2023-08-06T14:00:13;2.85;;;2.63;;
19509;SDS011;9896;42.486;26.506;2023-08-06T14:02:38;3.45;;;2.85;;
19509;SDS011;9896;42.486;26.506;2023-08-06T14:05:04;5.78;;;4.22;;
19509;SDS011;9896;42.486;26.506;2023-08-06T14:07:30;3.65;;;3.33;;
19509;SDS011;9896;42.486;26.506;2023-08-06T14:09:55;3.92;;;3.42;;
19509;SDS011;9896;42.486;26.506;2023-08-06T14:12:22;3.60;;;3.28;;
19509;SDS011;9896;42.486;26.506;2023-08-06T14:14:48;4.30;;;3.55;;
19509;SDS011;9896;42.486;26.506;2023-08-06T14:17:13;5.45;;;3.60;;
19509;SDS011;9896;42.486;26.506;2023-08-06T14:19:39;4.13;;;3.25;;
19509;SDS011;9896;42.486;26.506;2023-08-06T14:22:04;4.35;;;3.10;;
19509;SDS011;9896;42.486;26.506;2023-08-06T14:24:29;4.05;;;3.47;;
19509;SDS011;9896;42.486;26.506;2023-08-06T14:26:55;5.20;;;3.40;;
19509;SDS011;9896;42.486;26.506;2023-08-06T14:29:20;4.38;;;3.90;;
19509;SDS011;9896;42.486;26.506;2023-08-06T14:31:46;5.32;;;4.80;;